createdAt,value
2019-01-26T00:00:40.651Z,38.83
2019-01-26T00:03:11.770Z,34.47
2019-01-26T00:05:42.949Z,37.30
2019-01-26T00:08:14.048Z,36.03
2019-01-26T00:10:45.168Z,34.80
2019-01-26T00:13:16.158Z,34.80
2019-01-26T00:15:47.378Z,35.47
2019-01-26T00:18:18.492Z,35.30
2019-01-26T00:20:49.589Z,33.87
2019-01-26T00:23:20.694Z,34.97
2019-01-26T00:25:51.858Z,35.47
2019-01-26T00:28:22.980Z,35.63
2019-01-26T00:30:54.062Z,36.50
2019-01-26T00:33:25.148Z,35.23
2019-01-26T00:35:56.222Z,34.20
2019-01-26T00:38:27.182Z,33.13
2019-01-26T00:40:58.252Z,34.93
2019-01-26T00:43:29.309Z,34.07
2019-01-26T00:46:03.093Z,36.13
2019-01-26T00:48:34.049Z,33.93
2019-01-26T00:51:05.640Z,33.57
2019-01-26T00:53:36.764Z,34.47
2019-01-26T00:56:07.757Z,32.47
2019-01-26T00:58:38.930Z,34.53
2019-01-26T01:01:10.246Z,33.57
2019-01-26T01:03:45.284Z,35.53
2019-01-26T01:06:19.557Z,34.30
2019-01-26T01:08:50.585Z,33.67
2019-01-26T01:11:21.710Z,33.93
2019-01-26T01:13:52.760Z,31.77
2019-01-26T01:16:23.952Z,33.23
2019-01-26T01:18:55.387Z,33.00
2019-01-26T01:21:26.554Z,34.50
2019-01-26T01:23:58.519Z,32.97
2019-01-26T01:26:29.537Z,33.20
2019-01-26T01:29:00.438Z,32.23
2019-01-26T01:31:31.379Z,30.07
2019-01-26T01:34:02.342Z,29.40
2019-01-26T01:36:33.361Z,29.33
2019-01-26T01:39:07.776Z,29.90
2019-01-26T01:41:38.827Z,28.87
2019-01-26T01:44:09.714Z,29.57
2019-01-26T01:46:42.971Z,31.00
2019-01-26T01:49:13.570Z,30.70
2019-01-26T01:51:44.504Z,29.90
2019-01-26T01:54:15.346Z,31.37
2019-01-26T01:56:46.238Z,29.53
2019-01-26T01:59:17.179Z,28.27
2019-01-26T02:01:48.072Z,30.70
2019-01-26T02:04:19.072Z,29.30
2019-01-26T02:06:50.026Z,31.33
2019-01-26T02:09:20.992Z,30.73
2019-01-26T02:11:51.923Z,31.97
2019-01-26T02:14:22.906Z,31.60
2019-01-26T02:16:53.927Z,24.80
2019-01-26T02:19:25.450Z,33.07
2019-01-26T02:21:56.504Z,33.30
2019-01-26T02:24:30.242Z,32.20
2019-01-26T02:27:01.303Z,28.80
2019-01-26T02:29:32.304Z,28.70
2019-01-26T02:32:03.458Z,31.13
2019-01-26T02:34:34.373Z,32.00
2019-01-26T02:37:05.503Z,33.13
2019-01-26T02:39:36.489Z,28.77
2019-01-26T02:42:07.557Z,30.23
2019-01-26T02:44:50.823Z,27.10
2019-01-26T02:47:21.960Z,29.33
2019-01-26T02:49:52.815Z,29.00
2019-01-26T02:52:23.735Z,30.47
2019-01-26T02:54:54.678Z,26.73
2019-01-26T02:57:25.793Z,25.43
2019-01-26T02:59:56.674Z,31.70
2019-01-26T03:02:28.558Z,28.47
2019-01-26T03:04:59.687Z,29.73
2019-01-26T03:07:30.596Z,29.43
2019-01-26T03:10:01.476Z,27.40
2019-01-26T03:12:33.828Z,27.80
2019-01-26T03:15:09.341Z,28.60
2019-01-26T03:17:41.018Z,28.03
2019-01-26T03:20:14.137Z,27.70
2019-01-26T03:22:45.291Z,25.83
2019-01-26T03:25:22.161Z,28.97
2019-01-26T03:27:53.009Z,28.23
2019-01-26T03:30:26.363Z,29.37
2019-01-26T03:32:57.279Z,25.60
2019-01-26T03:35:28.281Z,27.60
2019-01-26T03:37:59.376Z,28.80
2019-01-26T03:40:30.313Z,27.67
2019-01-26T03:43:01.252Z,27.70
2019-01-26T03:45:32.169Z,27.20
2019-01-26T03:48:03.120Z,28.53
2019-01-26T03:50:33.989Z,25.33
2019-01-26T03:53:04.960Z,26.50
2019-01-26T03:55:35.886Z,24.53
2019-01-26T03:58:06.997Z,28.70
2019-01-26T04:00:38.073Z,25.50
2019-01-26T04:03:09.047Z,23.90
2019-01-26T04:05:40.187Z,25.60
2019-01-26T04:08:11.304Z,25.90
2019-01-26T04:10:42.477Z,23.67
2019-01-26T04:13:13.637Z,25.80
2019-01-26T04:15:44.888Z,27.17
2019-01-26T04:18:16.100Z,24.40
2019-01-26T04:20:47.355Z,26.20
2019-01-26T04:23:21.456Z,24.80
2019-01-26T04:25:53.374Z,26.43
2019-01-26T04:28:24.404Z,25.93
2019-01-26T04:30:55.276Z,24.87
2019-01-26T04:33:26.347Z,24.47
2019-01-26T04:35:57.296Z,23.03
2019-01-26T04:38:28.410Z,23.10
2019-01-26T04:40:59.270Z,20.77
2019-01-26T04:43:30.244Z,21.30
2019-01-26T04:46:01.181Z,24.73
2019-01-26T04:48:32.186Z,19.67
2019-01-26T04:51:03.126Z,21.33
2019-01-26T04:53:34.073Z,19.60
2019-01-26T04:56:05.077Z,17.03
2019-01-26T04:58:36.067Z,18.30
2019-01-26T05:01:07.085Z,19.40
2019-01-26T05:03:38.038Z,17.40
2019-01-26T05:06:09.067Z,18.10
2019-01-26T05:08:39.936Z,18.30
2019-01-26T05:11:10.788Z,17.70
2019-01-26T05:13:41.887Z,16.80
2019-01-26T05:16:12.736Z,16.63
2019-01-26T05:18:43.629Z,17.73
2019-01-26T05:21:14.569Z,17.20
2019-01-26T05:23:45.561Z,15.87
2019-01-26T05:26:16.556Z,15.10
2019-01-26T05:28:47.553Z,16.90
2019-01-26T05:31:18.472Z,15.97
2019-01-26T05:33:49.442Z,16.23
2019-01-26T05:36:20.282Z,16.97
2019-01-26T05:38:51.251Z,14.57
2019-01-26T05:41:22.107Z,16.43
2019-01-26T05:43:53.133Z,15.10
2019-01-26T05:46:23.973Z,15.50
2019-01-26T05:48:54.883Z,15.07
2019-01-26T05:51:25.855Z,15.17
2019-01-26T05:53:56.831Z,14.97
2019-01-26T05:56:27.744Z,14.20
2019-01-26T05:58:58.883Z,14.80
2019-01-26T06:01:29.971Z,15.90
2019-01-26T06:04:01.007Z,16.20
2019-01-26T06:06:34.446Z,17.00
2019-01-26T06:09:08.730Z,13.70
2019-01-26T06:11:39.738Z,17.50
2019-01-26T06:14:10.676Z,16.73
2019-01-26T06:16:41.520Z,17.30
2019-01-26T06:19:13.561Z,16.13
2019-01-26T06:21:44.461Z,15.80
2019-01-26T06:24:15.457Z,15.30
2019-01-26T06:26:46.295Z,16.50
2019-01-26T06:29:17.211Z,18.70
2019-01-26T06:31:48.167Z,16.40
2019-01-26T06:34:19.143Z,15.50
2019-01-26T06:36:50.022Z,17.83
2019-01-26T06:39:20.879Z,14.97
2019-01-26T06:41:51.819Z,17.13
2019-01-26T06:44:22.694Z,16.33
2019-01-26T06:46:53.557Z,14.27
2019-01-26T06:49:24.565Z,17.07
2019-01-26T06:51:56.457Z,14.67
2019-01-26T06:54:27.430Z,16.00
2019-01-26T06:56:58.350Z,16.40
2019-01-26T06:59:29.312Z,16.07
2019-01-26T07:02:00.253Z,15.90
2019-01-26T07:04:56.560Z,16.23
2019-01-26T07:07:27.426Z,14.00
2019-01-26T07:09:58.342Z,14.97
2019-01-26T07:12:29.177Z,14.37
2019-01-26T07:15:00.225Z,14.67
2019-01-26T07:17:31.857Z,15.37
2019-01-26T07:20:02.864Z,14.50
2019-01-26T07:22:33.809Z,15.37
2019-01-26T07:25:05.746Z,13.97
2019-01-26T07:27:36.751Z,16.00
2019-01-26T07:30:11.649Z,15.20
2019-01-26T07:32:42.524Z,14.77
2019-01-26T07:35:13.724Z,16.00
2019-01-26T07:37:44.746Z,14.33
2019-01-26T07:40:19.679Z,14.07
2019-01-26T07:42:51.043Z,12.70
2019-01-26T07:45:22.199Z,14.17
2019-01-26T07:47:53.430Z,14.00
2019-01-26T07:50:25.123Z,14.00
2019-01-26T07:52:56.301Z,13.20
2019-01-26T07:55:27.389Z,14.03
2019-01-26T07:57:59.583Z,15.67
2019-01-26T08:00:31.982Z,13.93
2019-01-26T08:03:03.056Z,14.57
2019-01-26T08:05:34.296Z,13.87
2019-01-26T08:08:05.378Z,14.77
2019-01-26T08:10:36.535Z,12.93
2019-01-26T08:13:07.608Z,14.53
2019-01-26T08:15:39.697Z,13.00
2019-01-26T08:18:13.818Z,13.27
2019-01-26T08:20:44.758Z,13.17
2019-01-26T08:23:15.803Z,13.40
2019-01-26T08:25:46.797Z,14.00
2019-01-26T08:28:17.873Z,10.87
2019-01-26T08:30:48.799Z,11.37
2019-01-26T08:33:19.660Z,10.60
2019-01-26T08:35:50.564Z,12.57
2019-01-26T08:38:21.578Z,12.63
2019-01-26T08:40:52.557Z,12.67
2019-01-26T08:43:24.403Z,11.80
2019-01-26T08:45:55.703Z,12.30
2019-01-26T08:48:31.340Z,10.57
2019-01-26T08:51:01.346Z,10.57
2019-01-26T08:53:32.714Z,12.40
2019-01-26T08:56:03.867Z,12.87
2019-01-26T08:58:34.897Z,12.50
2019-01-26T09:01:06.197Z,11.93
2019-01-26T09:04:05.647Z,11.30
2019-01-26T09:06:45.832Z,12.40
2019-01-26T09:09:16.683Z,10.90
2019-01-26T09:11:48.003Z,10.67
2019-01-26T09:14:18.863Z,10.30
2019-01-26T09:16:50.869Z,11.33
2019-01-26T09:19:21.739Z,12.47
2019-01-26T09:21:52.693Z,12.23
2019-01-26T09:24:23.688Z,10.67
2019-01-26T09:26:54.692Z,11.27
2019-01-26T09:29:25.760Z,9.80
2019-01-26T09:31:56.691Z,11.43
2019-01-26T09:34:27.632Z,10.47
2019-01-26T09:36:58.746Z,10.63
2019-01-26T09:39:29.964Z,10.20
2019-01-26T09:42:00.927Z,9.87
2019-01-26T09:44:31.918Z,10.60
2019-01-26T09:47:02.933Z,8.30
2019-01-26T09:49:33.946Z,10.40
2019-01-26T09:52:05.140Z,8.80
2019-01-26T09:54:36.532Z,9.10
2019-01-26T09:57:08.473Z,8.53
2019-01-26T09:59:39.430Z,7.13
2019-01-26T10:02:10.650Z,8.00
2019-01-26T10:04:41.830Z,10.47
2019-01-26T10:07:13.016Z,6.87
2019-01-26T10:09:43.951Z,7.50
2019-01-26T10:12:15.274Z,6.27
2019-01-26T10:14:46.296Z,9.37
2019-01-26T10:17:24.921Z,8.17
2019-01-26T10:19:55.894Z,8.40
2019-01-26T10:22:26.961Z,7.87
2019-01-26T10:24:57.856Z,8.27
2019-01-26T10:27:34.163Z,8.87
2019-01-26T10:30:09.694Z,8.30
2019-01-26T10:32:41.241Z,9.30
2019-01-26T10:35:12.713Z,8.20
2019-01-26T10:37:43.784Z,8.50
2019-01-26T10:40:36.929Z,8.70
2019-01-26T10:43:08.600Z,8.87
2019-01-26T10:45:58.794Z,8.93
2019-01-26T10:48:30.006Z,9.33
2019-01-26T10:51:01.066Z,8.70
2019-01-26T10:53:32.455Z,9.53
2019-01-26T10:56:03.501Z,8.83
2019-01-26T10:58:34.644Z,9.50
2019-01-26T11:01:06.767Z,10.27
2019-01-26T11:03:37.869Z,11.10
2019-01-26T11:06:08.978Z,9.33
2019-01-26T11:08:40.109Z,10.97
2019-01-26T11:11:11.160Z,10.20
2019-01-26T11:13:42.147Z,11.27
2019-01-26T11:16:12.992Z,11.67
2019-01-26T11:18:44.073Z,10.40
2019-01-26T11:21:15.086Z,10.87
2019-01-26T11:23:46.147Z,11.07
2019-01-26T11:26:17.082Z,12.87
2019-01-26T11:28:47.960Z,9.80
2019-01-26T11:31:19.203Z,10.13
2019-01-26T11:33:56.221Z,11.13
2019-01-26T11:36:30.001Z,11.53
2019-01-26T11:39:01.196Z,10.47
2019-01-26T11:41:33.829Z,12.83
2019-01-26T11:44:05.157Z,11.93
2019-01-26T11:46:40.760Z,11.40
2019-01-26T11:49:15.170Z,11.70
2019-01-26T11:52:03.464Z,13.37
2019-01-26T11:54:34.623Z,12.07
2019-01-26T11:57:16.651Z,11.13
2019-01-26T12:00:06.661Z,12.50
2019-01-26T12:02:43.873Z,12.10
2019-01-26T12:05:33.965Z,11.67
2019-01-26T12:08:05.138Z,11.87
2019-01-26T12:10:36.515Z,11.20
2019-01-26T12:13:07.547Z,11.90
2019-01-26T12:15:38.568Z,12.90
2019-01-26T12:18:09.581Z,11.30
2019-01-26T12:20:40.468Z,10.63
2019-01-26T12:23:11.591Z,10.20
2019-01-26T12:25:42.601Z,10.60
2019-01-26T12:28:13.638Z,9.97
2019-01-26T12:30:44.764Z,10.83
2019-01-26T12:33:15.731Z,10.40
2019-01-26T12:35:46.847Z,11.60
2019-01-26T12:38:17.923Z,10.13
2019-01-26T12:40:48.939Z,9.40
2019-01-26T12:43:19.957Z,10.77
2019-01-26T12:45:50.961Z,11.83
2019-01-26T12:48:21.943Z,11.97
2019-01-26T12:50:52.919Z,14.07
2019-01-26T12:53:23.965Z,12.47
2019-01-26T12:55:55.094Z,11.93
2019-01-26T12:58:26.206Z,11.87
2019-01-26T13:01:12.524Z,11.60
2019-01-26T13:03:43.561Z,12.23
2019-01-26T13:06:14.611Z,12.07
2019-01-26T13:08:45.711Z,12.00
2019-01-26T13:11:29.198Z,12.80
2019-01-26T13:14:00.213Z,12.50
2019-01-26T13:16:31.395Z,12.63
2019-01-26T13:19:02.497Z,13.63
2019-01-26T13:21:33.516Z,12.43
2019-01-26T13:24:04.944Z,12.60
2019-01-26T13:26:35.959Z,12.37
2019-01-26T13:29:07.144Z,10.87
2019-01-26T13:31:38.185Z,11.30
2019-01-26T13:34:09.987Z,12.70
2019-01-26T13:36:41.134Z,12.53
2019-01-26T13:39:14.166Z,13.10
2019-01-26T13:41:45.272Z,13.00
2019-01-26T13:44:16.176Z,12.90
2019-01-26T13:46:47.291Z,13.40
2019-01-26T13:49:18.462Z,11.60
2019-01-26T13:51:50.027Z,11.90
2019-01-26T13:54:21.539Z,10.83
2019-01-26T13:56:52.860Z,11.20
2019-01-26T13:59:23.901Z,11.23
2019-01-26T14:01:54.983Z,11.53
2019-01-26T14:04:27.038Z,12.73
2019-01-26T14:06:58.114Z,13.57
2019-01-26T14:09:29.208Z,12.63
2019-01-26T14:12:00.180Z,13.60
2019-01-26T14:14:31.326Z,14.90
2019-01-26T14:17:02.574Z,13.70
2019-01-26T14:19:33.620Z,13.03
2019-01-26T14:22:06.054Z,13.17
2019-01-26T14:24:36.990Z,14.37
2019-01-26T14:27:08.044Z,13.90
2019-01-26T14:29:39.012Z,14.27
2019-01-26T14:32:10.138Z,15.63
2019-01-26T14:34:40.987Z,18.07
2019-01-26T14:37:12.054Z,18.00
2019-01-26T14:39:42.907Z,17.47
2019-01-26T14:42:13.816Z,19.90
2019-01-26T14:44:44.681Z,19.50
2019-01-26T14:47:15.587Z,21.57
2019-01-26T14:49:46.439Z,20.03
2019-01-26T14:52:17.427Z,18.87
2019-01-26T14:54:48.416Z,19.83
2019-01-26T14:57:19.507Z,19.53
2019-01-26T14:59:50.442Z,21.23
2019-01-26T15:02:21.482Z,22.40
2019-01-26T15:04:52.409Z,22.13
2019-01-26T15:07:23.462Z,18.60
2019-01-26T15:10:00.333Z,19.80
2019-01-26T15:12:33.121Z,21.50
2019-01-26T15:15:05.278Z,21.00
2019-01-26T15:17:36.708Z,19.70
2019-01-26T15:20:29.491Z,18.33
2019-01-26T15:23:00.873Z,18.27
2019-01-26T15:25:32.082Z,16.03
2019-01-26T15:28:03.284Z,17.83
2019-01-26T15:30:43.160Z,17.40
2019-01-26T15:33:15.991Z,17.03
2019-01-26T15:35:47.007Z,15.40
2019-01-26T15:38:19.222Z,14.33
2019-01-26T15:40:50.199Z,13.70
2019-01-26T15:43:21.203Z,12.57
2019-01-26T15:45:52.266Z,13.33
2019-01-26T15:48:23.360Z,12.43
2019-01-26T15:50:54.519Z,13.40
2019-01-26T15:53:25.633Z,13.17
2019-01-26T15:55:56.706Z,13.70
2019-01-26T15:58:27.768Z,12.90
2019-01-26T16:00:58.889Z,12.37
2019-01-26T16:03:29.914Z,13.50
2019-01-26T16:06:00.817Z,12.00
2019-01-26T16:08:31.794Z,12.00
2019-01-26T16:11:02.773Z,12.60
2019-01-26T16:13:33.916Z,11.43
2019-01-26T16:16:05.046Z,12.27
2019-01-26T16:18:36.205Z,13.60
2019-01-26T16:21:07.183Z,12.93
2019-01-26T16:23:38.953Z,13.30
2019-01-26T16:26:10.811Z,13.70
2019-01-26T16:28:41.905Z,13.20
2019-01-26T16:31:16.363Z,12.60
2019-01-26T16:33:47.377Z,14.00
2019-01-26T16:36:24.502Z,14.80
2019-01-26T16:38:55.699Z,13.67
2019-01-26T16:41:26.768Z,12.03
2019-01-26T16:43:57.823Z,12.87
2019-01-26T16:46:28.726Z,13.03
2019-01-26T16:49:00.325Z,12.03
2019-01-26T16:51:31.311Z,11.80
2019-01-26T16:54:02.363Z,12.43
2019-01-26T16:56:33.601Z,12.00
2019-01-26T16:59:04.751Z,13.00
2019-01-26T17:01:35.615Z,11.50
2019-01-26T17:04:07.565Z,12.03
2019-01-26T17:06:38.533Z,12.73
2019-01-26T17:09:10.550Z,14.47
2019-01-26T17:11:41.407Z,12.77
2019-01-26T17:14:12.315Z,14.43
2019-01-26T17:16:43.312Z,15.10
2019-01-26T17:19:14.313Z,13.77
2019-01-26T17:21:45.359Z,15.33
2019-01-26T17:24:16.585Z,14.10
2019-01-26T17:26:52.751Z,16.00
2019-01-26T17:29:20.467Z,15.43
2019-01-26T17:31:51.737Z,14.40
2019-01-26T17:34:30.077Z,14.23
2019-01-26T17:36:57.055Z,14.20
2019-01-26T17:39:28.010Z,13.93
2019-01-26T17:42:04.389Z,14.67
2019-01-26T17:44:37.843Z,13.30
2019-01-26T17:47:16.903Z,14.30
2019-01-26T17:49:47.887Z,12.30
2019-01-26T17:52:18.865Z,14.27
2019-01-26T17:54:49.917Z,12.13
2019-01-26T17:57:23.048Z,12.37
2019-01-26T17:59:54.221Z,11.43
2019-01-26T18:02:31.295Z,11.67
2019-01-26T18:05:02.464Z,10.93
2019-01-26T18:07:33.551Z,10.43
2019-01-26T18:10:05.659Z,12.80
2019-01-26T18:12:36.911Z,13.17
2019-01-26T18:15:11.176Z,12.03
2019-01-26T18:17:42.283Z,12.50
2019-01-26T18:20:20.949Z,14.53
2019-01-26T18:22:52.049Z,15.43
2019-01-26T18:25:29.179Z,15.17
2019-01-26T18:28:00.467Z,16.03
2019-01-26T18:30:32.517Z,15.60
2019-01-26T18:33:04.003Z,17.60
2019-01-26T18:35:38.730Z,17.80
2019-01-26T18:38:10.303Z,18.17
2019-01-26T18:40:41.541Z,17.27
2019-01-26T18:43:12.528Z,18.40
2019-01-26T18:45:43.531Z,19.03
2019-01-26T18:48:14.817Z,17.00
2019-01-26T18:50:48.861Z,18.57
2019-01-26T18:53:19.795Z,19.33
2019-01-26T18:55:50.801Z,21.80
2019-01-26T18:58:21.891Z,21.77
2019-01-26T19:00:53.475Z,22.20
2019-01-26T19:03:53.127Z,21.03
2019-01-26T19:06:24.298Z,21.90
2019-01-26T19:08:55.247Z,22.47
2019-01-26T19:11:26.403Z,21.37
2019-01-26T19:13:57.332Z,24.60
2019-01-26T19:16:28.329Z,22.50
2019-01-26T19:18:59.208Z,24.40
2019-01-26T19:21:31.829Z,24.23
2019-01-26T19:24:02.874Z,24.03
2019-01-26T19:26:34.026Z,24.63
2019-01-26T19:29:05.011Z,24.10
2019-01-26T19:31:37.147Z,23.10
2019-01-26T19:34:08.469Z,21.83
2019-01-26T19:36:43.474Z,21.27
2019-01-26T19:39:14.911Z,18.80
2019-01-26T19:41:46.451Z,20.97
2019-01-26T19:44:17.719Z,19.80
2019-01-26T19:46:48.892Z,18.17
2019-01-26T19:49:20.221Z,18.23
2019-01-26T19:51:51.503Z,20.10
2019-01-26T19:54:22.572Z,20.13
2019-01-26T19:56:53.796Z,17.87
2019-01-26T19:59:31.366Z,19.90
2019-01-26T20:02:03.003Z,18.57
2019-01-26T20:04:34.234Z,22.07
2019-01-26T20:07:05.511Z,20.77
2019-01-26T20:09:36.690Z,24.00
2019-01-26T20:12:07.951Z,20.90
2019-01-26T20:14:39.146Z,23.17
2019-01-26T20:17:10.463Z,22.87
2019-01-26T20:19:41.526Z,22.30
2019-01-26T20:22:12.779Z,22.13
2019-01-26T20:24:43.870Z,21.90
2019-01-26T20:27:15.429Z,23.53
2019-01-26T20:29:46.876Z,22.97
2019-01-26T20:32:18.335Z,24.03
2019-01-26T20:34:51.428Z,21.70
2019-01-26T20:37:22.806Z,20.90
2019-01-26T20:39:54.155Z,20.70
2019-01-26T20:42:25.976Z,20.00
2019-01-26T20:44:57.402Z,21.00
2019-01-26T20:47:31.410Z,20.37
2019-01-26T20:50:02.738Z,20.20
2019-01-26T20:52:34.315Z,22.37
2019-01-26T20:55:07.026Z,21.13
2019-01-26T20:57:39.395Z,22.93
2019-01-26T21:00:26.942Z,22.43
2019-01-26T21:02:58.698Z,20.20
2019-01-26T21:05:30.565Z,23.80
2019-01-26T21:08:01.939Z,22.13
2019-01-26T21:10:33.100Z,23.67
2019-01-26T21:13:04.583Z,23.97
2019-01-26T21:15:35.758Z,23.10
2019-01-26T21:18:07.091Z,23.13
2019-01-26T21:20:38.197Z,25.67
2019-01-26T21:23:09.405Z,24.10
2019-01-26T21:25:40.544Z,24.97
2019-01-26T21:28:11.874Z,22.07
2019-01-26T21:30:42.980Z,27.33
2019-01-26T21:33:14.195Z,23.00
2019-01-26T21:35:46.319Z,28.00
2019-01-26T21:38:17.397Z,26.17
2019-01-26T21:40:48.530Z,27.00
2019-01-26T21:43:19.624Z,27.70
2019-01-26T21:45:50.807Z,29.03
2019-01-26T21:48:21.994Z,27.80
2019-01-26T21:50:53.242Z,27.37
2019-01-26T21:53:24.332Z,26.40
2019-01-26T21:55:55.354Z,25.67
2019-01-26T21:58:26.548Z,26.90
2019-01-26T22:00:57.580Z,26.20
2019-01-26T22:03:31.864Z,24.97
2019-01-26T22:06:03.104Z,26.97
2019-01-26T22:08:34.423Z,24.03
2019-01-26T22:11:06.187Z,25.70
2019-01-26T22:13:37.653Z,26.93
2019-01-26T22:16:08.803Z,25.53
2019-01-26T22:18:40.044Z,25.50
2019-01-26T22:21:11.323Z,25.47
2019-01-26T22:23:42.437Z,26.33
2019-01-26T22:26:13.609Z,25.00
2019-01-26T22:28:44.667Z,27.70
2019-01-26T22:31:16.002Z,27.70
2019-01-26T22:33:49.871Z,28.27
2019-01-26T22:36:20.821Z,27.83
2019-01-26T22:38:51.932Z,26.87
2019-01-26T22:41:22.920Z,26.47
2019-01-26T22:43:53.988Z,28.77
2019-01-26T22:46:24.881Z,27.87
2019-01-26T22:48:55.958Z,28.97
2019-01-26T22:51:27.147Z,27.07
2019-01-26T22:53:58.182Z,29.27
2019-01-26T22:56:29.143Z,28.83
2019-01-26T22:59:00.080Z,29.40
2019-01-26T23:01:37.973Z,31.00
2019-01-26T23:04:43.342Z,31.10
2019-01-26T23:07:42.979Z,30.67
2019-01-26T23:10:57.841Z,29.60
2019-01-26T23:14:10.873Z,29.37
2019-01-26T23:17:23.651Z,31.23
2019-01-26T23:20:50.363Z,30.23
2019-01-26T23:24:28.931Z,31.70
2019-01-26T23:27:50.012Z,31.70
2019-01-26T23:30:39.794Z,31.80
2019-01-26T23:33:10.851Z,33.30
2019-01-26T23:35:41.889Z,33.03
2019-01-26T23:38:12.951Z,34.50
2019-01-26T23:40:44.075Z,34.67
2019-01-26T23:43:15.370Z,34.07
2019-01-26T23:45:46.423Z,33.90
2019-01-26T23:48:17.601Z,35.80
2019-01-26T23:51:08.047Z,33.40
2019-01-26T23:53:39.373Z,34.03
2019-01-26T23:56:10.303Z,35.17
2019-01-26T23:58:41.305Z,35.10
